sensor_id;sensor_type;location;lat;lon;timestamp;temperature;humidity
41922;DHT22;27609;51.002;5.354;2023-02-07T00:00:41;2.40;99.90
41922;DHT22;27609;51.002;5.354;2023-02-07T00:03:07;2.30;99.90
41922;DHT22;27609;51.002;5.354;2023-02-07T00:05:33;2.20;99.90
41922;DHT22;27609;51.002;5.354;2023-02-07T00:08:04;2.20;99.90
41922;DHT22;27609;51.002;5.354;2023-02-07T00:10:31;2.20;99.90
41922;DHT22;27609;51.002;5.354;2023-02-07T00:12:57;2.10;99.90
41922;DHT22;27609;51.002;5.354;2023-02-07T00:15:23;2.20;99.90
41922;DHT22;27609;51.002;5.354;2023-02-07T00:17:49;2.10;99.90
41922;DHT22;27609;51.002;5.354;2023-02-07T00:20:15;2.10;99.90
41922;DHT22;27609;51.002;5.354;2023-02-07T00:22:43;2.00;99.90
41922;DHT22;27609;51.002;5.354;2023-02-07T00:25:09;2.00;99.90
41922;DHT22;27609;51.002;5.354;2023-02-07T00:27:35;2.00;99.90
41922;DHT22;27609;51.002;5.354;2023-02-07T00:30:01;1.90;99.90
41922;DHT22;27609;51.002;5.354;2023-02-07T00:32:30;1.90;99.90
41922;DHT22;27609;51.002;5.354;2023-02-07T00:34:56;1.90;99.90
41922;DHT22;27609;51.002;5.354;2023-02-07T00:37:21;1.80;99.90
41922;DHT22;27609;51.002;5.354;2023-02-07T00:39:47;1.90;99.90
41922;DHT22;27609;51.002;5.354;2023-02-07T00:42:13;1.80;99.90
41922;DHT22;27609;51.002;5.354;2023-02-07T00:44:39;1.80;99.90
41922;DHT22;27609;51.002;5.354;2023-02-07T00:47:04;1.80;99.90
41922;DHT22;27609;51.002;5.354;2023-02-07T00:49:30;1.60;99.90
41922;DHT22;27609;51.002;5.354;2023-02-07T00:51:56;1.70;99.90
41922;DHT22;27609;51.002;5.354;2023-02-07T00:54:22;1.70;99.90
41922;DHT22;27609;51.002;5.354;2023-02-07T00:56:48;1.70;99.90
41922;DHT22;27609;51.002;5.354;2023-02-07T00:59:13;1.70;99.90
41922;DHT22;27609;51.002;5.354;2023-02-07T01:01:39;1.60;99.90
41922;DHT22;27609;51.002;5.354;2023-02-07T01:04:05;1.50;99.90
41922;DHT22;27609;51.002;5.354;2023-02-07T01:06:31;1.50;99.90
41922;DHT22;27609;51.002;5.354;2023-02-07T01:09:00;1.40;99.90
41922;DHT22;27609;51.002;5.354;2023-02-07T01:11:26;2.00;99.90
41922;DHT22;27609;51.002;5.354;2023-02-07T01:13:52;1.40;99.90
41922;DHT22;27609;51.002;5.354;2023-02-07T01:16:23;1.30;99.90
41922;DHT22;27609;51.002;5.354;2023-02-07T01:18:49;1.30;99.90
41922;DHT22;27609;51.002;5.354;2023-02-07T01:21:16;1.30;99.90
41922;DHT22;27609;51.002;5.354;2023-02-07T01:23:43;1.30;99.90
41922;DHT22;27609;51.002;5.354;2023-02-07T01:26:09;1.40;99.90
41922;DHT22;27609;51.002;5.354;2023-02-07T01:28:34;1.30;99.90
41922;DHT22;27609;51.002;5.354;2023-02-07T01:31:09;1.30;99.90
41922;DHT22;27609;51.002;5.354;2023-02-07T01:33:35;1.20;99.90
41922;DHT22;27609;51.002;5.354;2023-02-07T01:36:08;1.20;99.90
41922;DHT22;27609;51.002;5.354;2023-02-07T01:38:34;1.10;99.90
41922;DHT22;27609;51.002;5.354;2023-02-07T01:41:00;1.60;99.90
41922;DHT22;27609;51.002;5.354;2023-02-07T01:43:27;1.10;99.90
41922;DHT22;27609;51.002;5.354;2023-02-07T01:45:52;1.10;99.90
41922;DHT22;27609;51.002;5.354;2023-02-07T01:48:30;1.30;99.90
41922;DHT22;27609;51.002;5.354;2023-02-07T01:50:59;1.10;99.90
41922;DHT22;27609;51.002;5.354;2023-02-07T01:53:26;1.20;99.90
41922;DHT22;27609;51.002;5.354;2023-02-07T01:55:57;1.70;99.90
41922;DHT22;27609;51.002;5.354;2023-02-07T01:58:23;1.00;99.90
41922;DHT22;27609;51.002;5.354;2023-02-07T02:00:50;1.10;99.90
41922;DHT22;27609;51.002;5.354;2023-02-07T02:03:16;0.90;99.90
41922;DHT22;27609;51.002;5.354;2023-02-07T02:05:43;0.90;99.90
41922;DHT22;27609;51.002;5.354;2023-02-07T02:08:10;0.80;99.90
41922;DHT22;27609;51.002;5.354;2023-02-07T02:11:01;2.10;99.90
41922;DHT22;27609;51.002;5.354;2023-02-07T02:19:44;0.80;99.90
41922;DHT22;27609;51.002;5.354;2023-02-07T02:31:19;0.60;99.90
41922;DHT22;27609;51.002;5.354;2023-02-07T02:34:06;0.70;99.90
41922;DHT22;27609;51.002;5.354;2023-02-07T02:39:30;0.60;99.90
41922;DHT22;27609;51.002;5.354;2023-02-07T02:42:24;0.60;99.90
41922;DHT22;27609;51.002;5.354;2023-02-07T02:47:21;0.60;99.90
41922;DHT22;27609;51.002;5.354;2023-02-07T02:49:48;0.50;99.90
41922;DHT22;27609;51.002;5.354;2023-02-07T02:52:15;0.50;99.90
41922;DHT22;27609;51.002;5.354;2023-02-07T02:54:41;0.50;99.90
41922;DHT22;27609;51.002;5.354;2023-02-07T03:00:19;0.40;99.90
41922;DHT22;27609;51.002;5.354;2023-02-07T03:08:22;0.40;99.90
41922;DHT22;27609;51.002;5.354;2023-02-07T03:10:59;0.30;99.90
41922;DHT22;27609;51.002;5.354;2023-02-07T03:16:23;-0.10;99.90
41922;DHT22;27609;51.002;5.354;2023-02-07T03:19:16;0.10;99.90
41922;DHT22;27609;51.002;5.354;2023-02-07T03:24:43;0.10;99.90
41922;DHT22;27609;51.002;5.354;2023-02-07T03:27:13;0.20;99.90
41922;DHT22;27609;51.002;5.354;2023-02-07T03:29:41;0.20;99.90
41922;DHT22;27609;51.002;5.354;2023-02-07T03:32:09;0.20;99.90
41922;DHT22;27609;51.002;5.354;2023-02-07T03:34:42;0.20;99.90
41922;DHT22;27609;51.002;5.354;2023-02-07T03:37:15;1.10;99.90
41922;DHT22;27609;51.002;5.354;2023-02-07T03:39:43;0.30;99.90
41922;DHT22;27609;51.002;5.354;2023-02-07T03:42:22;0.20;99.90
41922;DHT22;27609;51.002;5.354;2023-02-07T03:44:50;1.00;99.90
41922;DHT22;27609;51.002;5.354;2023-02-07T03:47:18;1.00;99.90
41922;DHT22;27609;51.002;5.354;2023-02-07T03:49:44;1.00;99.90
41922;DHT22;27609;51.002;5.354;2023-02-07T03:52:10;0.20;99.90
41922;DHT22;27609;51.002;5.354;2023-02-07T03:54:36;0.10;99.90
41922;DHT22;27609;51.002;5.354;2023-02-07T03:57:02;0.10;99.90
41922;DHT22;27609;51.002;5.354;2023-02-07T03:59:28;0.00;99.90
41922;DHT22;27609;51.002;5.354;2023-02-07T04:01:54;-0.10;99.90
41922;DHT22;27609;51.002;5.354;2023-02-07T04:04:20;-0.10;99.90
41922;DHT22;27609;51.002;5.354;2023-02-07T04:06:45;0.00;99.90
41922;DHT22;27609;51.002;5.354;2023-02-07T04:09:11;-0.10;99.90
41922;DHT22;27609;51.002;5.354;2023-02-07T04:11:37;1.00;99.90
41922;DHT22;27609;51.002;5.354;2023-02-07T04:14:02;-0.20;99.90
41922;DHT22;27609;51.002;5.354;2023-02-07T04:16:28;-0.20;99.90
41922;DHT22;27609;51.002;5.354;2023-02-07T04:18:54;-0.20;99.90
41922;DHT22;27609;51.002;5.354;2023-02-07T04:21:20;-0.10;99.90
41922;DHT22;27609;51.002;5.354;2023-02-07T04:23:46;-0.80;99.90
41922;DHT22;27609;51.002;5.354;2023-02-07T04:26:11;-0.20;99.90
41922;DHT22;27609;51.002;5.354;2023-02-07T04:28:37;1.10;99.90
41922;DHT22;27609;51.002;5.354;2023-02-07T04:31:03;0.20;99.90
41922;DHT22;27609;51.002;5.354;2023-02-07T04:33:29;-0.20;99.90
41922;DHT22;27609;51.002;5.354;2023-02-07T04:36:00;-0.30;99.90
41922;DHT22;27609;51.002;5.354;2023-02-07T04:38:27;-0.30;99.90
41922;DHT22;27609;51.002;5.354;2023-02-07T04:41:00;0.20;99.90
41922;DHT22;27609;51.002;5.354;2023-02-07T04:43:29;-0.50;99.90
41922;DHT22;27609;51.002;5.354;2023-02-07T04:45:55;0.30;99.90
41922;DHT22;27609;51.002;5.354;2023-02-07T04:48:20;-0.40;99.90
41922;DHT22;27609;51.002;5.354;2023-02-07T04:50:46;-0.40;99.90
41922;DHT22;27609;51.002;5.354;2023-02-07T04:53:12;-0.40;99.90
41922;DHT22;27609;51.002;5.354;2023-02-07T04:55:38;-0.40;99.90
41922;DHT22;27609;51.002;5.354;2023-02-07T04:58:05;-0.40;99.90
41922;DHT22;27609;51.002;5.354;2023-02-07T05:00:31;-1.20;99.90
41922;DHT22;27609;51.002;5.354;2023-02-07T05:02:57;-0.40;99.90
41922;DHT22;27609;51.002;5.354;2023-02-07T05:05:23;-0.40;99.90
41922;DHT22;27609;51.002;5.354;2023-02-07T05:07:48;-0.30;99.90
41922;DHT22;27609;51.002;5.354;2023-02-07T05:10:14;-0.20;99.90
41922;DHT22;27609;51.002;5.354;2023-02-07T05:12:40;-0.40;99.90
41922;DHT22;27609;51.002;5.354;2023-02-07T05:15:06;-0.40;99.90
41922;DHT22;27609;51.002;5.354;2023-02-07T05:17:32;-0.50;99.90
41922;DHT22;27609;51.002;5.354;2023-02-07T05:20:00;-0.10;99.90
41922;DHT22;27609;51.002;5.354;2023-02-07T05:22:26;0.10;99.90
41922;DHT22;27609;51.002;5.354;2023-02-07T05:24:52;-0.50;99.90
41922;DHT22;27609;51.002;5.354;2023-02-07T05:27:17;-0.40;99.90
41922;DHT22;27609;51.002;5.354;2023-02-07T05:29:43;-0.50;99.90
41922;DHT22;27609;51.002;5.354;2023-02-07T05:32:13;0.60;99.90
41922;DHT22;27609;51.002;5.354;2023-02-07T05:34:57;-0.70;99.90
41922;DHT22;27609;51.002;5.354;2023-02-07T05:37:23;0.80;99.90
41922;DHT22;27609;51.002;5.354;2023-02-07T05:39:49;-0.70;99.90
41922;DHT22;27609;51.002;5.354;2023-02-07T05:42:14;-0.60;99.90
41922;DHT22;27609;51.002;5.354;2023-02-07T05:44:40;-0.60;99.90
41922;DHT22;27609;51.002;5.354;2023-02-07T05:47:06;-0.60;99.90
41922;DHT22;27609;51.002;5.354;2023-02-07T05:49:32;-0.50;99.90
41922;DHT22;27609;51.002;5.354;2023-02-07T05:51:58;-0.40;99.90
41922;DHT22;27609;51.002;5.354;2023-02-07T05:54:23;-0.60;99.90
41922;DHT22;27609;51.002;5.354;2023-02-07T05:56:49;-0.60;99.90
41922;DHT22;27609;51.002;5.354;2023-02-07T05:59:15;0.70;99.90
41922;DHT22;27609;51.002;5.354;2023-02-07T06:01:41;-0.50;99.90
41922;DHT22;27609;51.002;5.354;2023-02-07T06:04:07;-0.70;99.90
41922;DHT22;27609;51.002;5.354;2023-02-07T06:06:33;0.50;99.90
41922;DHT22;27609;51.002;5.354;2023-02-07T06:08:58;0.10;99.90
41922;DHT22;27609;51.002;5.354;2023-02-07T06:11:24;-0.70;99.90
41922;DHT22;27609;51.002;5.354;2023-02-07T06:13:50;0.40;99.90
41922;DHT22;27609;51.002;5.354;2023-02-07T06:16:16;-0.60;99.90
41922;DHT22;27609;51.002;5.354;2023-02-07T06:18:42;-0.70;99.90
41922;DHT22;27609;51.002;5.354;2023-02-07T06:21:07;-0.70;99.90
41922;DHT22;27609;51.002;5.354;2023-02-07T06:23:33;0.60;99.90
41922;DHT22;27609;51.002;5.354;2023-02-07T06:25:59;0.10;99.90
41922;DHT22;27609;51.002;5.354;2023-02-07T06:28:25;0.50;99.90
41922;DHT22;27609;51.002;5.354;2023-02-07T06:30:51;-0.60;99.90
41922;DHT22;27609;51.002;5.354;2023-02-07T06:33:17;-0.60;99.90
41922;DHT22;27609;51.002;5.354;2023-02-07T06:35:43;-0.70;99.90
41922;DHT22;27609;51.002;5.354;2023-02-07T06:38:15;-0.20;99.90
41922;DHT22;27609;51.002;5.354;2023-02-07T06:40:42;-0.60;99.90
41922;DHT22;27609;51.002;5.354;2023-02-07T06:43:09;-0.70;99.90
41922;DHT22;27609;51.002;5.354;2023-02-07T06:45:35;-0.80;99.90
41922;DHT22;27609;51.002;5.354;2023-02-07T06:48:01;-0.70;99.90
41922;DHT22;27609;51.002;5.354;2023-02-07T06:50:27;-0.70;99.90
41922;DHT22;27609;51.002;5.354;2023-02-07T06:52:53;-0.30;99.90
41922;DHT22;27609;51.002;5.354;2023-02-07T06:55:19;-0.70;99.90
41922;DHT22;27609;51.002;5.354;2023-02-07T06:57:45;0.30;99.90
41922;DHT22;27609;51.002;5.354;2023-02-07T07:00:11;-0.90;99.90
41922;DHT22;27609;51.002;5.354;2023-02-07T07:02:36;-0.80;99.90
41922;DHT22;27609;51.002;5.354;2023-02-07T07:05:02;-0.70;99.90
41922;DHT22;27609;51.002;5.354;2023-02-07T07:07:28;-0.80;99.90
41922;DHT22;27609;51.002;5.354;2023-02-07T07:09:54;-0.30;99.90
41922;DHT22;27609;51.002;5.354;2023-02-07T07:12:20;0.00;99.90
41922;DHT22;27609;51.002;5.354;2023-02-07T07:14:45;0.20;99.90
41922;DHT22;27609;51.002;5.354;2023-02-07T07:17:11;-0.40;99.90
41922;DHT22;27609;51.002;5.354;2023-02-07T07:19:37;-0.20;99.90
41922;DHT22;27609;51.002;5.354;2023-02-07T07:22:02;-0.80;99.90
41922;DHT22;27609;51.002;5.354;2023-02-07T07:24:28;-0.80;99.90
41922;DHT22;27609;51.002;5.354;2023-02-07T07:26:54;-0.10;99.90
41922;DHT22;27609;51.002;5.354;2023-02-07T07:29:21;-0.70;99.90
41922;DHT22;27609;51.002;5.354;2023-02-07T07:31:47;-0.30;99.90
41922;DHT22;27609;51.002;5.354;2023-02-07T07:34:13;0.10;99.90
41922;DHT22;27609;51.002;5.354;2023-02-07T07:36:39;0.80;99.90
41922;DHT22;27609;51.002;5.354;2023-02-07T07:39:04;1.40;99.90
41922;DHT22;27609;51.002;5.354;2023-02-07T07:41:31;1.90;99.90
41922;DHT22;27609;51.002;5.354;2023-02-07T07:43:57;2.20;99.90
41922;DHT22;27609;51.002;5.354;2023-02-07T07:46:23;3.20;99.90
41922;DHT22;27609;51.002;5.354;2023-02-07T07:48:48;2.50;99.90
41922;DHT22;27609;51.002;5.354;2023-02-07T07:51:14;2.60;99.90
41922;DHT22;27609;51.002;5.354;2023-02-07T07:53:40;3.20;99.90
41922;DHT22;27609;51.002;5.354;2023-02-07T07:56:05;3.60;99.90
41922;DHT22;27609;51.002;5.354;2023-02-07T07:58:31;3.90;99.90
41922;DHT22;27609;51.002;5.354;2023-02-07T08:01:24;4.20;99.90
41922;DHT22;27609;51.002;5.354;2023-02-07T08:03:52;4.70;99.90
41922;DHT22;27609;51.002;5.354;2023-02-07T08:06:17;5.30;99.90
41922;DHT22;27609;51.002;5.354;2023-02-07T08:08:43;5.60;99.90
41922;DHT22;27609;51.002;5.354;2023-02-07T08:11:10;5.70;99.90
41922;DHT22;27609;51.002;5.354;2023-02-07T08:13:36;5.80;99.90
41922;DHT22;27609;51.002;5.354;2023-02-07T08:16:03;5.90;99.90
41922;DHT22;27609;51.002;5.354;2023-02-07T08:18:32;5.90;99.90
41922;DHT22;27609;51.002;5.354;2023-02-07T08:20:57;6.20;99.90
41922;DHT22;27609;51.002;5.354;2023-02-07T08:23:23;7.40;99.90
41922;DHT22;27609;51.002;5.354;2023-02-07T08:25:49;8.40;99.90
41922;DHT22;27609;51.002;5.354;2023-02-07T08:28:16;9.60;99.90
41922;DHT22;27609;51.002;5.354;2023-02-07T08:30:41;10.40;99.90
41922;DHT22;27609;51.002;5.354;2023-02-07T08:33:07;11.70;99.90
41922;DHT22;27609;51.002;5.354;2023-02-07T08:35:33;13.10;99.90
41922;DHT22;27609;51.002;5.354;2023-02-07T08:37:59;14.00;99.90
41922;DHT22;27609;51.002;5.354;2023-02-07T08:40:25;14.10;99.90
41922;DHT22;27609;51.002;5.354;2023-02-07T08:42:51;14.10;99.90
41922;DHT22;27609;51.002;5.354;2023-02-07T08:45:17;12.90;99.90
41922;DHT22;27609;51.002;5.354;2023-02-07T08:47:44;13.20;99.90
41922;DHT22;27609;51.002;5.354;2023-02-07T08:50:11;13.70;99.90
41922;DHT22;27609;51.002;5.354;2023-02-07T08:52:37;14.50;99.90
41922;DHT22;27609;51.002;5.354;2023-02-07T08:55:04;13.60;99.90
41922;DHT22;27609;51.002;5.354;2023-02-07T08:57:30;13.10;99.90
41922;DHT22;27609;51.002;5.354;2023-02-07T08:59:55;14.30;99.90
41922;DHT22;27609;51.002;5.354;2023-02-07T09:02:21;14.10;99.90
41922;DHT22;27609;51.002;5.354;2023-02-07T09:04:47;13.90;99.90
41922;DHT22;27609;51.002;5.354;2023-02-07T09:07:13;14.30;99.90
41922;DHT22;27609;51.002;5.354;2023-02-07T09:09:39;15.20;99.90
41922;DHT22;27609;51.002;5.354;2023-02-07T09:12:05;16.80;98.80
41922;DHT22;27609;51.002;5.354;2023-02-07T09:14:31;14.90;98.40
41922;DHT22;27609;51.002;5.354;2023-02-07T09:16:57;14.40;99.90
41922;DHT22;27609;51.002;5.354;2023-02-07T09:19:22;16.50;98.50
41922;DHT22;27609;51.002;5.354;2023-02-07T09:21:48;16.50;96.60
41922;DHT22;27609;51.002;5.354;2023-02-07T09:24:14;16.50;96.60
41922;DHT22;27609;51.002;5.354;2023-02-07T09:26:39;16.30;95.70
41922;DHT22;27609;51.002;5.354;2023-02-07T09:29:06;15.60;97.50
41922;DHT22;27609;51.002;5.354;2023-02-07T09:31:33;16.80;96.40
41922;DHT22;27609;51.002;5.354;2023-02-07T09:33:59;18.80;93.50
41922;DHT22;27609;51.002;5.354;2023-02-07T09:36:27;18.50;92.20
41922;DHT22;27609;51.002;5.354;2023-02-07T09:38:53;19.30;91.30
41922;DHT22;27609;51.002;5.354;2023-02-07T09:43:55;16.10;93.50
41922;DHT22;27609;51.002;5.354;2023-02-07T09:46:30;17.00;93.70
41922;DHT22;27609;51.002;5.354;2023-02-07T09:51:49;17.40;91.40
41922;DHT22;27609;51.002;5.354;2023-02-07T09:54:42;15.80;93.00
41922;DHT22;27609;51.002;5.354;2023-02-07T09:57:16;16.90;91.50
41922;DHT22;27609;51.002;5.354;2023-02-07T10:04:49;15.90;92.90
41922;DHT22;27609;51.002;5.354;2023-02-07T10:07:17;15.00;93.20
41922;DHT22;27609;51.002;5.354;2023-02-07T10:09:44;12.60;98.70
41922;DHT22;27609;51.002;5.354;2023-02-07T10:12:44;14.00;98.70
41922;DHT22;27609;51.002;5.354;2023-02-07T10:21:07;17.40;92.70
41922;DHT22;27609;51.002;5.354;2023-02-07T10:26:39;18.70;90.30
41922;DHT22;27609;51.002;5.354;2023-02-07T10:31:53;16.80;90.60
41922;DHT22;27609;51.002;5.354;2023-02-07T10:34:43;18.80;89.90
41922;DHT22;27609;51.002;5.354;2023-02-07T10:37:22;21.20;83.40
41922;DHT22;27609;51.002;5.354;2023-02-07T10:40:09;22.70;80.20
41922;DHT22;27609;51.002;5.354;2023-02-07T10:42:36;24.00;71.60
41922;DHT22;27609;51.002;5.354;2023-02-07T10:45:03;24.60;69.20
41922;DHT22;27609;51.002;5.354;2023-02-07T10:47:29;24.40;69.20
41922;DHT22;27609;51.002;5.354;2023-02-07T10:49:59;24.80;64.90
41922;DHT22;27609;51.002;5.354;2023-02-07T10:52:36;21.40;69.00
41922;DHT22;27609;51.002;5.354;2023-02-07T10:55:06;21.40;70.80
41922;DHT22;27609;51.002;5.354;2023-02-07T10:57:33;19.50;71.70
41922;DHT22;27609;51.002;5.354;2023-02-07T11:00:00;20.20;73.70
41922;DHT22;27609;51.002;5.354;2023-02-07T11:05:01;17.60;74.50
41922;DHT22;27609;51.002;5.354;2023-02-07T11:07:29;15.20;78.50
41922;DHT22;27609;51.002;5.354;2023-02-07T11:10:28;17.40;78.10
41922;DHT22;27609;51.002;5.354;2023-02-07T11:12:58;18.90;72.30
41922;DHT22;27609;51.002;5.354;2023-02-07T11:15:35;20.70;68.10
41922;DHT22;27609;51.002;5.354;2023-02-07T11:18:02;15.90;76.00
41922;DHT22;27609;51.002;5.354;2023-02-07T11:22:58;13.80;83.80
41922;DHT22;27609;51.002;5.354;2023-02-07T11:25:52;15.50;78.60
41922;DHT22;27609;51.002;5.354;2023-02-07T11:28:24;15.40;80.30
41922;DHT22;27609;51.002;5.354;2023-02-07T11:30:52;15.60;80.60
41922;DHT22;27609;51.002;5.354;2023-02-07T11:33:25;17.90;76.40
41922;DHT22;27609;51.002;5.354;2023-02-07T11:36:19;21.00;70.90
41922;DHT22;27609;51.002;5.354;2023-02-07T11:38:55;21.50;68.50
41922;DHT22;27609;51.002;5.354;2023-02-07T11:41:23;20.70;68.10
41922;DHT22;27609;51.002;5.354;2023-02-07T11:44:01;19.10;71.00
41922;DHT22;27609;51.002;5.354;2023-02-07T11:46:41;20.40;70.90
41922;DHT22;27609;51.002;5.354;2023-02-07T11:49:47;18.80;70.20
41922;DHT22;27609;51.002;5.354;2023-02-07T11:52:15;18.90;69.00
41922;DHT22;27609;51.002;5.354;2023-02-07T11:54:48;19.80;67.30
41922;DHT22;27609;51.002;5.354;2023-02-07T11:57:15;21.50;63.20
41922;DHT22;27609;51.002;5.354;2023-02-07T12:00:04;21.60;62.80
41922;DHT22;27609;51.002;5.354;2023-02-07T12:02:33;22.90;63.40
41922;DHT22;27609;51.002;5.354;2023-02-07T12:05:22;21.40;63.50
41922;DHT22;27609;51.002;5.354;2023-02-07T12:07:52;21.40;62.40
41922;DHT22;27609;51.002;5.354;2023-02-07T12:10:26;19.90;66.10
41922;DHT22;27609;51.002;5.354;2023-02-07T12:13:03;21.30;64.20
41922;DHT22;27609;51.002;5.354;2023-02-07T12:15:40;21.10;61.70
41922;DHT22;27609;51.002;5.354;2023-02-07T12:18:28;19.90;65.10
41922;DHT22;27609;51.002;5.354;2023-02-07T12:21:03;18.00;65.80
41922;DHT22;27609;51.002;5.354;2023-02-07T12:23:51;16.80;71.20
41922;DHT22;27609;51.002;5.354;2023-02-07T12:37:07;18.10;68.50
41922;DHT22;27609;51.002;5.354;2023-02-07T12:39:45;19.30;66.90
41922;DHT22;27609;51.002;5.354;2023-02-07T12:44:59;22.20;64.60
41922;DHT22;27609;51.002;5.354;2023-02-07T12:53:21;25.30;58.20
41922;DHT22;27609;51.002;5.354;2023-02-07T13:01:42;22.50;60.40
41922;DHT22;27609;51.002;5.354;2023-02-07T13:12:27;23.30;58.50
41922;DHT22;27609;51.002;5.354;2023-02-07T13:17:34;23.70;58.40
41922;DHT22;27609;51.002;5.354;2023-02-07T13:22:39;19.20;63.50
41922;DHT22;27609;51.002;5.354;2023-02-07T13:25:56;18.50;63.80
41922;DHT22;27609;51.002;5.354;2023-02-07T13:28:11;19.90;63.20
41922;DHT22;27609;51.002;5.354;2023-02-07T13:30:39;20.80;61.20
41922;DHT22;27609;51.002;5.354;2023-02-07T13:33:22;21.10;60.60
41922;DHT22;27609;51.002;5.354;2023-02-07T13:35:51;18.70;63.90
41922;DHT22;27609;51.002;5.354;2023-02-07T13:39:10;17.70;67.50
41922;DHT22;27609;51.002;5.354;2023-02-07T13:44:22;16.60;66.30
41922;DHT22;27609;51.002;5.354;2023-02-07T13:55:31;16.70;66.80
41922;DHT22;27609;51.002;5.354;2023-02-07T13:57:58;16.00;68.00
41922;DHT22;27609;51.002;5.354;2023-02-07T14:03:26;17.00;64.90
41922;DHT22;27609;51.002;5.354;2023-02-07T14:06:14;18.50;65.00
41922;DHT22;27609;51.002;5.354;2023-02-07T14:08:42;19.30;62.20
41922;DHT22;27609;51.002;5.354;2023-02-07T14:16:50;15.80;68.10
41922;DHT22;27609;51.002;5.354;2023-02-07T14:27:40;12.50;79.70
41922;DHT22;27609;51.002;5.354;2023-02-07T14:33:39;12.20;81.70
41922;DHT22;27609;51.002;5.354;2023-02-07T14:39:02;11.90;84.00
41922;DHT22;27609;51.002;5.354;2023-02-07T14:41:31;11.60;84.30
41922;DHT22;27609;51.002;5.354;2023-02-07T14:44:00;11.40;85.90
41922;DHT22;27609;51.002;5.354;2023-02-07T14:46:39;12.00;90.70
41922;DHT22;27609;51.002;5.354;2023-02-07T14:49:19;11.10;87.50
41922;DHT22;27609;51.002;5.354;2023-02-07T14:51:57;11.50;86.50
41922;DHT22;27609;51.002;5.354;2023-02-07T14:54:49;12.10;85.10
41922;DHT22;27609;51.002;5.354;2023-02-07T14:57:32;11.70;87.30
41922;DHT22;27609;51.002;5.354;2023-02-07T15:02:40;11.40;85.70
41922;DHT22;27609;51.002;5.354;2023-02-07T15:07:41;12.90;82.60
41922;DHT22;27609;51.002;5.354;2023-02-07T15:10:29;13.30;81.70
41922;DHT22;27609;51.002;5.354;2023-02-07T15:12:55;13.90;79.60
41922;DHT22;27609;51.002;5.354;2023-02-07T15:15:27;13.90;78.50
41922;DHT22;27609;51.002;5.354;2023-02-07T15:17:55;13.70;76.70
41922;DHT22;27609;51.002;5.354;2023-02-07T15:20:33;13.80;78.20
41922;DHT22;27609;51.002;5.354;2023-02-07T15:23:02;13.60;80.00
41922;DHT22;27609;51.002;5.354;2023-02-07T15:25:28;13.60;79.10
41922;DHT22;27609;51.002;5.354;2023-02-07T15:28:00;14.00;79.20
41922;DHT22;27609;51.002;5.354;2023-02-07T15:30:26;14.00;79.20
41922;DHT22;27609;51.002;5.354;2023-02-07T15:32:52;14.00;78.30
41922;DHT22;27609;51.002;5.354;2023-02-07T15:35:37;13.40;78.70
41922;DHT22;27609;51.002;5.354;2023-02-07T15:38:19;12.50;81.50
41922;DHT22;27609;51.002;5.354;2023-02-07T15:40:45;12.00;83.90
41922;DHT22;27609;51.002;5.354;2023-02-07T15:43:31;10.90;87.20
41922;DHT22;27609;51.002;5.354;2023-02-07T15:46:07;10.40;88.50
41922;DHT22;27609;51.002;5.354;2023-02-07T15:48:51;9.50;91.30
41922;DHT22;27609;51.002;5.354;2023-02-07T15:51:24;9.20;93.00
41922;DHT22;27609;51.002;5.354;2023-02-07T15:53:55;9.10;94.70
41922;DHT22;27609;51.002;5.354;2023-02-07T15:56:21;8.80;95.10
41922;DHT22;27609;51.002;5.354;2023-02-07T15:58:47;8.40;98.60
41922;DHT22;27609;51.002;5.354;2023-02-07T16:01:22;8.30;99.60
41922;DHT22;27609;51.002;5.354;2023-02-07T16:03:49;8.20;99.90
41922;DHT22;27609;51.002;5.354;2023-02-07T16:06:23;8.10;99.90
41922;DHT22;27609;51.002;5.354;2023-02-07T16:08:51;8.10;99.90
41922;DHT22;27609;51.002;5.354;2023-02-07T16:16:23;8.60;99.90
41922;DHT22;27609;51.002;5.354;2023-02-07T16:18:50;7.70;99.90
41922;DHT22;27609;51.002;5.354;2023-02-07T16:21:26;7.60;99.90
41922;DHT22;27609;51.002;5.354;2023-02-07T16:23:59;7.50;99.90
41922;DHT22;27609;51.002;5.354;2023-02-07T16:26:26;7.50;99.90
41922;DHT22;27609;51.002;5.354;2023-02-07T16:28:52;7.40;99.90
41922;DHT22;27609;51.002;5.354;2023-02-07T16:31:18;7.30;99.90
41922;DHT22;27609;51.002;5.354;2023-02-07T16:33:44;7.20;99.90
41922;DHT22;27609;51.002;5.354;2023-02-07T16:36:13;7.00;99.90
41922;DHT22;27609;51.002;5.354;2023-02-07T16:38:40;6.90;99.90
41922;DHT22;27609;51.002;5.354;2023-02-07T16:41:06;6.80;99.90
41922;DHT22;27609;51.002;5.354;2023-02-07T16:46:00;6.50;99.90
41922;DHT22;27609;51.002;5.354;2023-02-07T16:48:26;6.40;99.90
41922;DHT22;27609;51.002;5.354;2023-02-07T16:50:52;6.30;99.90
41922;DHT22;27609;51.002;5.354;2023-02-07T16:53:18;5.70;99.90
41922;DHT22;27609;51.002;5.354;2023-02-07T16:55:43;6.00;99.90
41922;DHT22;27609;51.002;5.354;2023-02-07T16:58:23;5.90;99.90
41922;DHT22;27609;51.002;5.354;2023-02-07T17:00:51;5.70;99.90
41922;DHT22;27609;51.002;5.354;2023-02-07T17:03:17;5.60;99.90
41922;DHT22;27609;51.002;5.354;2023-02-07T17:05:43;5.60;99.90
41922;DHT22;27609;51.002;5.354;2023-02-07T17:08:17;5.40;99.90
41922;DHT22;27609;51.002;5.354;2023-02-07T17:10:51;5.30;99.90
41922;DHT22;27609;51.002;5.354;2023-02-07T17:13:18;5.30;99.90
41922;DHT22;27609;51.002;5.354;2023-02-07T17:15:44;5.20;99.90
41922;DHT22;27609;51.002;5.354;2023-02-07T17:18:13;5.20;99.90
41922;DHT22;27609;51.002;5.354;2023-02-07T17:20:39;5.10;99.90
41922;DHT22;27609;51.002;5.354;2023-02-07T17:23:05;5.00;99.90
41922;DHT22;27609;51.002;5.354;2023-02-07T17:25:31;5.00;99.90
41922;DHT22;27609;51.002;5.354;2023-02-07T17:27:57;4.90;99.90
41922;DHT22;27609;51.002;5.354;2023-02-07T17:30:26;4.80;99.90
41922;DHT22;27609;51.002;5.354;2023-02-07T17:32:53;4.80;99.90
41922;DHT22;27609;51.002;5.354;2023-02-07T17:35:19;3.90;99.90
41922;DHT22;27609;51.002;5.354;2023-02-07T17:37:46;4.60;99.90
41922;DHT22;27609;51.002;5.354;2023-02-07T17:42:55;4.40;99.90
41922;DHT22;27609;51.002;5.354;2023-02-07T17:45:21;4.40;99.90
41922;DHT22;27609;51.002;5.354;2023-02-07T17:47:47;4.30;99.90
41922;DHT22;27609;51.002;5.354;2023-02-07T17:50:23;4.10;99.90
41922;DHT22;27609;51.002;5.354;2023-02-07T17:52:49;4.10;99.90
41922;DHT22;27609;51.002;5.354;2023-02-07T17:55:16;4.10;99.90
41922;DHT22;27609;51.002;5.354;2023-02-07T17:57:42;4.00;99.90
41922;DHT22;27609;51.002;5.354;2023-02-07T18:00:13;4.00;99.90
41922;DHT22;27609;51.002;5.354;2023-02-07T18:02:40;4.00;99.90
41922;DHT22;27609;51.002;5.354;2023-02-07T18:05:07;3.90;99.90
41922;DHT22;27609;51.002;5.354;2023-02-07T18:07:33;3.90;99.90
41922;DHT22;27609;51.002;5.354;2023-02-07T18:09:59;3.70;99.90
41922;DHT22;27609;51.002;5.354;2023-02-07T18:12:25;3.70;99.90
41922;DHT22;27609;51.002;5.354;2023-02-07T18:14:50;3.60;99.90
41922;DHT22;27609;51.002;5.354;2023-02-07T18:17:17;3.60;99.90
41922;DHT22;27609;51.002;5.354;2023-02-07T18:19:43;3.50;99.90
41922;DHT22;27609;51.002;5.354;2023-02-07T18:22:08;3.40;99.90